Time;durP1;ratioP1;P1;durP2;ratioP2;P2;SDS_P1;SDS_P2;PMS_P1;PMS_P2;Temp;Humidity;BMP_temperature;BMP_pressure;BME280_temperature;BME280_humidity;BME280_pressure;Samples;Min_cycle;Max_cycle;Signal;HPM_P1;HPM_P2
2022/12/07 00:01:23;;;;;;;;;;;2.70;99.90;;;;;;2603723;54;19942;31
2022/12/07 00:04:03;;;;;;;;;;;2.70;99.90;;;;;;2622280;46;19941;31
2022/12/07 00:06:41;;;;;;;;;;;2.70;99.90;;;;;;2603840;54;19935;31
2022/12/07 00:09:19;;;;;;;;;;;2.70;99.90;;;;;;2603695;54;19989;31
2022/12/07 00:11:54;;;;;;;;;;;2.70;99.90;;;;;;2622204;46;19934;31
2022/12/07 00:14:29;;;;;;;;;;;2.70;99.90;;;;;;2622364;46;20706;31
2022/12/07 00:17:04;;;;;;;;;;;2.70;99.90;;;;;;2603613;54;19941;31
2022/12/07 00:19:41;;;;;;;;;;;2.70;99.90;;;;;;2603650;54;20042;31
2022/12/07 00:22:18;;;;;;;;;;;2.70;99.90;;;;;;2603949;54;20743;31
2022/12/07 00:24:52;;;;;;;;;;;2.70;99.90;;;;;;2622211;46;19935;31
2022/12/07 00:27:26;;;;;;;;;;;2.70;99.90;;;;;;2622226;46;20777;31
2022/12/07 00:30:00;;;;;;;;;;;2.70;99.90;;;;;;2603843;54;19934;31
2022/12/07 00:32:39;;;;;;;;;;;2.70;99.90;;;;;;2603282;54;20736;31
2022/12/07 00:35:14;;;;;;;;;;;2.70;99.90;;;;;;2603617;54;19934;31
2022/12/07 00:37:51;;;;;;;;;;;2.60;99.90;;;;;;2603883;54;20711;31
2022/12/07 00:40:25;;;;;;;;;;;2.60;99.90;;;;;;2603946;54;19935;31
2022/12/07 00:42:59;;;;;;;;;;;2.70;99.90;;;;;;2603604;54;20770;31
2022/12/07 00:45:34;;;;;;;;;;;2.70;99.90;;;;;;2602755;54;19950;31
2022/12/07 00:48:08;;;;;;;;;;;2.70;99.90;;;;;;2602952;54;20803;31
2022/12/07 00:50:42;;;;;;;;;;;2.70;99.90;;;;;;2603689;54;20004;31
2022/12/07 00:53:21;;;;;;;;;;;2.70;99.90;;;;;;2603529;54;20666;31
2022/12/07 00:55:56;;;;;;;;;;;2.60;99.90;;;;;;2602768;54;19942;31
2022/12/07 00:58:30;;;;;;;;;;;2.60;99.90;;;;;;2603501;54;19957;31
2022/12/07 01:01:07;;;;;;;;;;;2.60;99.90;;;;;;2603217;54;20721;31
2022/12/07 01:03:44;;;;;;;;;;;2.60;99.90;;;;;;2603476;54;19946;31
2022/12/07 01:06:19;;;;;;;;;;;2.60;99.90;;;;;;2603808;54;20070;31
2022/12/07 01:08:57;;;;;;;;;;;2.60;99.90;;;;;;2603442;54;20800;31
2022/12/07 01:11:30;;;;;;;;;;;2.60;99.90;;;;;;2603595;54;20715;31
2022/12/07 01:14:04;;;;;;;;;;;2.60;99.90;;;;;;2621920;46;19950;31
2022/12/07 01:16:39;;;;;;;;;;;2.60;99.90;;;;;;2622390;46;20786;31
2022/12/07 01:19:15;;;;;;;;;;;2.60;99.90;;;;;;2603545;54;20922;31
2022/12/07 01:21:50;;;;;;;;;;;2.60;99.90;;;;;;2603421;54;19935;31
2022/12/07 01:24:27;;;;;;;;;;;2.60;99.90;;;;;;2603297;54;20717;31
2022/12/07 01:27:00;;;;;;;;;;;2.60;99.90;;;;;;2622039;46;19935;31
2022/12/07 01:29:35;;;;;;;;;;;2.60;99.90;;;;;;2603317;54;19964;31
2022/12/07 01:32:08;;;;;;;;;;;2.60;99.90;;;;;;2603365;54;20810;31
2022/12/07 01:34:43;;;;;;;;;;;2.60;99.90;;;;;;2621995;46;20819;31
2022/12/07 01:37:17;;;;;;;;;;;2.50;99.90;;;;;;2621911;46;19935;31
2022/12/07 01:39:54;;;;;;;;;;;2.60;99.90;;;;;;2603534;54;19954;31
2022/12/07 01:42:28;;;;;;;;;;;2.60;99.90;;;;;;2603469;54;19942;31
2022/12/07 01:45:15;;;;;;;;;;;2.50;99.90;;;;;;2603341;54;19983;31
2022/12/07 01:47:52;;;;;;;;;;;2.50;99.90;;;;;;2621906;46;19934;31
2022/12/07 01:50:31;;;;;;;;;;;2.50;99.90;;;;;;2603208;54;19935;31
2022/12/07 01:53:05;;;;;;;;;;;2.50;99.90;;;;;;2622140;46;19961;31
2022/12/07 01:55:41;;;;;;;;;;;2.50;99.90;;;;;;2622059;46;20786;31
2022/12/07 01:58:15;;;;;;;;;;;2.50;99.90;;;;;;2603552;54;19997;31
2022/12/07 02:00:49;;;;;;;;;;;2.50;99.90;;;;;;2603352;54;19942;31
2022/12/07 02:03:25;;;;;;;;;;;2.50;99.90;;;;;;2606969;46;19946;31
2022/12/07 02:06:00;;;;;;;;;;;2.50;99.90;;;;;;2622033;46;19972;31
2022/12/07 02:08:36;;;;;;;;;;;2.50;99.90;;;;;;2621862;46;19935;31
2022/12/07 02:11:13;;;;;;;;;;;2.50;99.90;;;;;;2622180;46;20730;31
2022/12/07 02:13:47;;;;;;;;;;;2.50;99.90;;;;;;2603432;54;20739;31
2022/12/07 02:16:24;;;;;;;;;;;2.50;99.90;;;;;;2622124;47;19935;31
2022/12/07 02:19:10;;;;;;;;;;;2.50;99.90;;;;;;2603253;54;19935;31
2022/12/07 02:21:49;;;;;;;;;;;2.50;99.90;;;;;;2603251;54;19993;31
2022/12/07 02:24:34;;;;;;;;;;;2.50;99.90;;;;;;2603221;54;20799;31
2022/12/07 02:27:22;;;;;;;;;;;2.40;99.90;;;;;;2621801;47;20797;31
2022/12/07 02:30:00;;;;;;;;;;;2.40;99.90;;;;;;2603236;54;20028;31
2022/12/07 02:32:39;;;;;;;;;;;2.40;99.90;;;;;;2602343;54;19947;31
2022/12/07 02:35:16;;;;;;;;;;;2.40;99.90;;;;;;2621776;47;19935;31
2022/12/07 02:37:53;;;;;;;;;;;2.40;99.90;;;;;;2603132;54;19935;31
2022/12/07 02:40:28;;;;;;;;;;;2.40;99.90;;;;;;2603017;54;20844;31
2022/12/07 02:43:02;;;;;;;;;;;2.40;99.90;;;;;;2621873;47;19935;31
2022/12/07 02:45:40;;;;;;;;;;;2.40;99.90;;;;;;2602469;54;19949;31
2022/12/07 02:48:13;;;;;;;;;;;2.40;99.90;;;;;;2621661;47;19934;31
2022/12/07 02:50:47;;;;;;;;;;;2.40;99.90;;;;;;2602961;54;20754;31
2022/12/07 02:53:32;;;;;;;;;;;2.40;99.90;;;;;;2602529;54;20793;31
2022/12/07 02:56:08;;;;;;;;;;;2.30;99.90;;;;;;2603378;54;19935;31
2022/12/07 02:58:46;;;;;;;;;;;2.30;99.90;;;;;;2603885;54;20760;31
2022/12/07 03:01:24;;;;;;;;;;;2.30;99.90;;;;;;2603100;54;20824;31
2022/12/07 03:04:01;;;;;;;;;;;2.30;99.90;;;;;;2603442;54;20790;31
2022/12/07 03:06:35;;;;;;;;;;;2.40;99.90;;;;;;2603903;54;20842;31
2022/12/07 03:09:12;;;;;;;;;;;2.30;99.90;;;;;;2603920;54;19934;31
2022/12/07 03:11:47;;;;;;;;;;;2.30;99.90;;;;;;2603813;54;19941;31
2022/12/07 03:14:22;;;;;;;;;;;2.30;99.90;;;;;;2603981;54;19939;31
2022/12/07 03:16:58;;;;;;;;;;;2.30;99.90;;;;;;2622151;46;19941;31
2022/12/07 03:19:34;;;;;;;;;;;2.40;99.90;;;;;;2622542;46;20774;31
2022/12/07 03:22:08;;;;;;;;;;;2.30;99.90;;;;;;2603881;54;20737;31
2022/12/07 03:24:44;;;;;;;;;;;2.30;99.90;;;;;;2603454;54;20758;31
2022/12/07 03:27:21;;;;;;;;;;;2.30;99.90;;;;;;2605757;46;20737;31
2022/12/07 03:29:57;;;;;;;;;;;2.30;99.90;;;;;;2603933;54;20034;31
2022/12/07 03:32:34;;;;;;;;;;;2.30;99.90;;;;;;2622702;46;19942;31
2022/12/07 03:35:09;;;;;;;;;;;2.30;99.90;;;;;;2621891;46;20778;31
2022/12/07 03:37:43;;;;;;;;;;;2.30;99.90;;;;;;2622332;46;19935;31
2022/12/07 03:40:20;;;;;;;;;;;2.30;99.90;;;;;;2622309;46;20742;31
2022/12/07 03:42:56;;;;;;;;;;;2.30;99.90;;;;;;2622219;46;19934;31
2022/12/07 03:45:32;;;;;;;;;;;2.30;99.90;;;;;;2622213;46;19941;31
2022/12/07 03:48:10;;;;;;;;;;;2.30;99.90;;;;;;2603762;54;20725;31
2022/12/07 03:50:45;;;;;;;;;;;2.30;99.90;;;;;;2603898;54;20745;31
2022/12/07 03:53:21;;;;;;;;;;;2.30;99.90;;;;;;2603797;54;21443;31
2022/12/07 03:55:56;;;;;;;;;;;2.30;99.90;;;;;;2604023;54;19934;31
2022/12/07 03:58:31;;;;;;;;;;;2.30;99.90;;;;;;2603857;54;19954;31
2022/12/07 04:01:07;;;;;;;;;;;2.30;99.90;;;;;;2622480;46;19934;31
2022/12/07 04:03:50;;;;;;;;;;;2.30;99.90;;;;;;2622110;46;20728;31
2022/12/07 04:06:24;;;;;;;;;;;2.30;99.90;;;;;;2622484;46;20017;31
2022/12/07 04:09:00;;;;;;;;;;;2.30;99.90;;;;;;2603642;54;19961;31
2022/12/07 04:11:35;;;;;;;;;;;2.30;99.90;;;;;;2622084;46;19941;31
2022/12/07 04:14:20;;;;;;;;;;;2.30;99.90;;;;;;2622657;46;19941;31
2022/12/07 04:16:56;;;;;;;;;;;2.30;99.90;;;;;;2603787;54;20761;31
2022/12/07 04:19:33;;;;;;;;;;;2.30;99.90;;;;;;2603678;54;19957;31
2022/12/07 04:22:09;;;;;;;;;;;2.30;99.90;;;;;;2603733;54;20693;31
2022/12/07 04:24:47;;;;;;;;;;;2.30;99.90;;;;;;2603838;54;19942;31
2022/12/07 04:27:19;;;;;;;;;;;2.30;99.90;;;;;;2622031;46;20735;31
2022/12/07 04:29:55;;;;;;;;;;;2.20;99.90;;;;;;2622002;46;19934;31
2022/12/07 04:32:29;;;;;;;;;;;3.10;99.90;;;;;;2603609;54;19935;31
2022/12/07 04:35:08;;;;;;;;;;;2.30;99.90;;;;;;2603671;54;19939;31
2022/12/07 04:37:42;;;;;;;;;;;2.30;99.90;;;;;;2603626;54;19941;31
2022/12/07 04:40:16;;;;;;;;;;;2.30;99.90;;;;;;2603618;54;20851;31
2022/12/07 04:42:49;;;;;;;;;;;2.30;99.90;;;;;;2603687;54;20036;31
2022/12/07 04:45:22;;;;;;;;;;;2.30;99.90;;;;;;2621917;46;19935;31
2022/12/07 04:47:57;;;;;;;;;;;2.30;99.90;;;;;;2621817;46;20706;31
2022/12/07 04:50:34;;;;;;;;;;;2.30;99.90;;;;;;2603568;54;20734;31
2022/12/07 04:53:08;;;;;;;;;;;2.30;99.90;;;;;;2603893;54;19935;31
2022/12/07 04:55:43;;;;;;;;;;;2.30;99.90;;;;;;2603728;54;19987;31
2022/12/07 04:58:17;;;;;;;;;;;2.20;99.90;;;;;;2622313;46;19961;31
2022/12/07 05:00:52;;;;;;;;;;;2.30;99.90;;;;;;2622021;46;19941;31
2022/12/07 05:03:25;;;;;;;;;;;2.30;99.90;;;;;;2603867;54;19985;31
2022/12/07 05:06:03;;;;;;;;;;;2.30;99.90;;;;;;2603906;54;20689;31
2022/12/07 05:08:44;;;;;;;;;;;2.20;99.90;;;;;;2603832;54;20711;31
2022/12/07 05:14:06;;;;;;;;;;;2.30;99.90;;;;;;2603358;54;20752;31
2022/12/07 05:16:41;;;;;;;;;;;2.20;99.90;;;;;;2622317;46;19938;31
2022/12/07 05:19:15;;;;;;;;;;;2.30;99.90;;;;;;2603763;54;19941;31
2022/12/07 05:21:54;;;;;;;;;;;2.30;99.90;;;;;;2603619;54;20013;31
2022/12/07 05:24:28;;;;;;;;;;;2.30;99.90;;;;;;2603342;54;19994;31
2022/12/07 05:27:03;;;;;;;;;;;2.30;99.90;;;;;;2622136;46;19934;31
2022/12/07 05:29:39;;;;;;;;;;;2.30;99.90;;;;;;2603548;54;19934;31
2022/12/07 05:32:16;;;;;;;;;;;2.30;99.90;;;;;;2622084;46;20711;31
2022/12/07 05:34:54;;;;;;;;;;;2.30;99.90;;;;;;2603449;54;20775;31
2022/12/07 05:37:31;;;;;;;;;;;2.30;99.90;;;;;;2603751;54;19985;31
2022/12/07 05:40:05;;;;;;;;;;;2.30;99.90;;;;;;2622192;46;19941;31
2022/12/07 05:42:40;;;;;;;;;;;2.30;99.90;;;;;;2621962;46;20888;31
2022/12/07 05:45:13;;;;;;;;;;;2.40;99.90;;;;;;2621841;46;20013;31
2022/12/07 05:47:49;;;;;;;;;;;2.40;99.90;;;;;;2621783;46;19997;31
2022/12/07 05:50:25;;;;;;;;;;;2.40;99.90;;;;;;2603537;54;20030;31
2022/12/07 05:53:08;;;;;;;;;;;2.40;99.90;;;;;;2603722;54;19957;31
2022/12/07 05:55:45;;;;;;;;;;;2.40;99.90;;;;;;2622028;46;19941;31
2022/12/07 06:01:06;;;;;;;;;;;2.40;99.90;;;;;;2603294;54;19943;31
2022/12/07 06:03:41;;;;;;;;;;;2.40;99.90;;;;;;2622001;46;20762;31
2022/12/07 06:06:14;;;;;;;;;;;2.50;99.90;;;;;;2621905;46;20781;31
2022/12/07 06:08:54;;;;;;;;;;;2.40;99.90;;;;;;2603301;54;20793;31
2022/12/07 06:14:13;;;;;;;;;;;2.40;99.90;;;;;;2702338;39;20895;31
2022/12/07 06:16:47;;;;;;;;;;;2.40;99.90;;;;;;2602908;54;19961;31
2022/12/07 06:19:20;;;;;;;;;;;2.40;99.90;;;;;;2603177;54;20014;31
2022/12/07 06:21:55;;;;;;;;;;;2.40;99.90;;;;;;2603333;54;19954;31
2022/12/07 06:24:33;;;;;;;;;;;2.40;99.90;;;;;;2621952;47;19943;31
2022/12/07 06:27:12;;;;;;;;;;;3.00;99.90;;;;;;2612857;47;19950;31
2022/12/07 06:29:46;;;;;;;;;;;2.40;99.90;;;;;;2603284;54;19935;31
2022/12/07 06:32:21;;;;;;;;;;;2.30;99.90;;;;;;2603797;54;19935;31
2022/12/07 06:34:59;;;;;;;;;;;2.30;99.90;;;;;;2603929;54;20808;31
2022/12/07 06:37:37;;;;;;;;;;;2.40;99.90;;;;;;2622696;46;20842;31
2022/12/07 06:40:11;;;;;;;;;;;2.30;99.90;;;;;;2604174;54;20061;31
2022/12/07 06:42:47;;;;;;;;;;;2.40;99.90;;;;;;2622484;46;20017;31
2022/12/07 06:45:21;;;;;;;;;;;2.30;99.90;;;;;;2604124;54;19981;31
2022/12/07 06:47:57;;;;;;;;;;;2.30;99.90;;;;;;2701927;39;21435;31
2022/12/07 06:50:31;;;;;;;;;;;2.30;99.90;;;;;;2604215;54;19990;31
2022/12/07 06:53:12;;;;;;;;;;;2.30;99.90;;;;;;2603847;54;19935;31
2022/12/07 06:55:47;;;;;;;;;;;2.30;99.90;;;;;;2603946;54;20762;31
2022/12/07 06:58:26;;;;;;;;;;;2.30;99.90;;;;;;2603919;54;20788;31
2022/12/07 07:01:04;;;;;;;;;;;2.30;99.90;;;;;;2604273;54;20046;31
2022/12/07 07:03:38;;;;;;;;;;;2.30;99.90;;;;;;2622808;46;20670;31
2022/12/07 07:06:13;;;;;;;;;;;2.30;99.90;;;;;;2603944;54;20804;31
2022/12/07 07:08:47;;;;;;;;;;;2.30;99.90;;;;;;2622537;46;19941;31
2022/12/07 07:11:20;;;;;;;;;;;2.30;99.90;;;;;;2622765;46;20804;31
2022/12/07 07:13:56;;;;;;;;;;;2.30;99.90;;;;;;2604104;54;19935;31
2022/12/07 07:16:36;;;;;;;;;;;2.30;99.90;;;;;;2604068;54;19938;31
2022/12/07 07:19:11;;;;;;;;;;;2.30;99.90;;;;;;2603292;54;20010;31
2022/12/07 07:21:46;;;;;;;;;;;2.30;99.90;;;;;;2702459;39;21421;31
2022/12/07 07:24:21;;;;;;;;;;;2.30;99.90;;;;;;2604038;54;20723;31
2022/12/07 07:26:57;;;;;;;;;;;2.30;99.90;;;;;;2603653;54;20761;31
2022/12/07 07:32:07;;;;;;;;;;;2.40;99.90;;;;;;2622532;46;19941;31
2022/12/07 07:34:43;;;;;;;;;;;2.40;99.90;;;;;;2702648;39;20364;31
2022/12/07 07:37:16;;;;;;;;;;;2.40;99.90;;;;;;2603804;54;20769;31
2022/12/07 07:39:55;;;;;;;;;;;2.50;99.90;;;;;;2622563;46;19942;31
2022/12/07 07:42:30;;;;;;;;;;;2.50;99.90;;;;;;2603825;54;19935;31
2022/12/07 07:45:04;;;;;;;;;;;2.60;99.90;;;;;;2603789;54;19935;31
2022/12/07 07:47:42;;;;;;;;;;;2.60;99.90;;;;;;2603560;54;20062;31
2022/12/07 07:50:18;;;;;;;;;;;2.60;99.90;;;;;;2604084;54;20041;31
2022/12/07 07:52:52;;;;;;;;;;;2.70;99.90;;;;;;2622373;46;20758;31
2022/12/07 07:55:28;;;;;;;;;;;2.70;99.90;;;;;;2622332;46;19941;31
2022/12/07 07:58:04;;;;;;;;;;;2.80;99.90;;;;;;2603772;54;19934;31
2022/12/07 08:00:38;;;;;;;;;;;3.00;99.90;;;;;;2603588;54;21342;31
2022/12/07 08:03:16;;;;;;;;;;;3.20;99.90;;;;;;2603987;54;19934;31
2022/12/07 08:05:50;;;;;;;;;;;3.20;99.90;;;;;;2603722;54;19935;31
2022/12/07 08:08:24;;;;;;;;;;;3.20;99.90;;;;;;2603810;54;20742;31
2022/12/07 08:11:00;;;;;;;;;;;3.10;99.90;;;;;;2622436;46;20013;31
2022/12/07 08:13:35;;;;;;;;;;;4.00;99.90;;;;;;2622128;46;19943;31
2022/12/07 08:16:10;;;;;;;;;;;3.00;99.90;;;;;;2603791;54;19934;31
2022/12/07 08:18:47;;;;;;;;;;;3.00;99.90;;;;;;2622423;46;19947;31
2022/12/07 08:21:23;;;;;;;;;;;3.00;99.90;;;;;;2603528;54;20804;31
2022/12/07 08:23:58;;;;;;;;;;;3.00;99.90;;;;;;2603784;54;20801;31
2022/12/07 08:26:37;;;;;;;;;;;3.00;99.90;;;;;;2605150;46;19935;31
2022/12/07 08:29:15;;;;;;;;;;;2.90;99.90;;;;;;2603650;54;20017;31
2022/12/07 08:31:50;;;;;;;;;;;2.90;99.90;;;;;;2603800;54;19935;31
2022/12/07 08:34:27;;;;;;;;;;;2.90;99.90;;;;;;2701976;39;21268;31
2022/12/07 08:37:02;;;;;;;;;;;3.00;99.90;;;;;;2621808;46;20746;31
2022/12/07 08:39:35;;;;;;;;;;;3.10;99.90;;;;;;2720646;39;20476;31
2022/12/07 08:42:10;;;;;;;;;;;3.30;99.90;;;;;;2603507;54;20021;31
2022/12/07 08:44:45;;;;;;;;;;;3.30;99.90;;;;;;2603738;54;19943;31
2022/12/07 08:47:21;;;;;;;;;;;3.40;99.90;;;;;;2603664;54;19943;31
2022/12/07 08:50:03;;;;;;;;;;;3.30;99.90;;;;;;2622233;46;19985;31
2022/12/07 08:52:36;;;;;;;;;;;3.30;99.90;;;;;;2603874;54;19934;31
2022/12/07 08:55:11;;;;;;;;;;;3.40;99.90;;;;;;2603296;54;19973;31
2022/12/07 08:57:49;;;;;;;;;;;3.60;99.90;;;;;;2603724;54;20001;31
2022/12/07 09:00:24;;;;;;;;;;;3.90;99.90;;;;;;2720414;39;20465;31
2022/12/07 09:02:58;;;;;;;;;;;4.00;99.90;;;;;;2603626;54;19942;31
2022/12/07 09:05:34;;;;;;;;;;;4.30;99.90;;;;;;2603700;54;19989;31
2022/12/07 09:08:10;;;;;;;;;;;4.50;99.90;;;;;;2603677;54;20762;31
2022/12/07 09:10:46;;;;;;;;;;;4.70;99.90;;;;;;2603438;54;19935;31
2022/12/07 09:13:19;;;;;;;;;;;4.80;99.90;;;;;;2622148;46;19935;31
2022/12/07 09:15:54;;;;;;;;;;;4.80;99.90;;;;;;2720551;39;20385;31
2022/12/07 09:18:28;;;;;;;;;;;4.90;99.90;;;;;;2603576;54;20478;31
2022/12/07 09:21:06;;;;;;;;;;;4.90;99.90;;;;;;2622352;46;20773;31
2022/12/07 09:23:40;;;;;;;;;;;4.90;99.90;;;;;;2720434;39;20404;31
2022/12/07 09:26:14;;;;;;;;;;;4.90;99.90;;;;;;2603561;54;20498;31
2022/12/07 09:28:48;;;;;;;;;;;5.00;99.90;;;;;;2603675;54;19955;31
2022/12/07 09:31:23;;;;;;;;;;;5.20;99.90;;;;;;2720357;39;20460;31
2022/12/07 09:33:59;;;;;;;;;;;5.20;99.90;;;;;;2603218;54;19935;31
2022/12/07 09:36:35;;;;;;;;;;;5.20;99.90;;;;;;2622168;46;20561;31
2022/12/07 09:39:10;;;;;;;;;;;5.20;99.90;;;;;;2603329;54;20793;31
2022/12/07 09:41:44;;;;;;;;;;;5.20;99.90;;;;;;2603018;54;20042;31
2022/12/07 09:44:17;;;;;;;;;;;5.10;99.90;;;;;;2603303;54;19935;31
2022/12/07 09:46:52;;;;;;;;;;;5.10;99.90;;;;;;2603299;54;19990;31
2022/12/07 09:49:27;;;;;;;;;;;5.00;99.90;;;;;;2603361;54;20754;31
2022/12/07 09:52:19;;;;;;;;;;;5.00;99.90;;;;;;2603570;54;19939;31
2022/12/07 09:54:54;;;;;;;;;;;4.90;99.90;;;;;;2603408;54;19946;31
2022/12/07 09:57:30;;;;;;;;;;;4.80;99.90;;;;;;2608863;46;20454;31
2022/12/07 10:00:06;;;;;;;;;;;4.80;99.90;;;;;;2603419;54;20749;31
2022/12/07 10:02:41;;;;;;;;;;;4.80;99.90;;;;;;2621638;46;19961;31
2022/12/07 10:05:16;;;;;;;;;;;4.80;99.90;;;;;;2602690;54;19994;31
2022/12/07 10:07:58;;;;;;;;;;;4.80;99.90;;;;;;2603332;54;20481;31
2022/12/07 10:10:34;;;;;;;;;;;4.80;99.90;;;;;;2603482;54;19941;31
2022/12/07 10:13:11;;;;;;;;;;;4.80;99.90;;;;;;2603096;54;19935;31
2022/12/07 10:15:50;;;;;;;;;;;4.70;99.90;;;;;;2602513;54;20826;31
2022/12/07 10:18:28;;;;;;;;;;;4.70;99.90;;;;;;2603207;54;20780;31
2022/12/07 10:21:04;;;;;;;;;;;4.70;99.90;;;;;;2603229;54;19943;31
2022/12/07 10:23:41;;;;;;;;;;;4.70;99.90;;;;;;2603345;54;20580;31
2022/12/07 10:26:30;;;;;;;;;;;4.70;99.90;;;;;;2603180;54;20772;31
2022/12/07 10:29:03;;;;;;;;;;;4.60;99.90;;;;;;2603104;54;19989;31
2022/12/07 10:31:38;;;;;;;;;;;4.60;99.90;;;;;;2701780;39;20388;31
2022/12/07 10:34:17;;;;;;;;;;;4.60;99.90;;;;;;2603166;54;20689;31
2022/12/07 10:36:52;;;;;;;;;;;4.60;99.90;;;;;;2603182;54;21308;31
2022/12/07 10:39:31;;;;;;;;;;;4.60;99.90;;;;;;2603431;54;19939;31
2022/12/07 10:42:05;;;;;;;;;;;4.50;99.90;;;;;;2621723;47;20021;31
2022/12/07 10:44:42;;;;;;;;;;;4.40;99.90;;;;;;2621727;47;20191;31
2022/12/07 10:47:21;;;;;;;;;;;4.30;99.90;;;;;;2701322;39;20416;31
2022/12/07 10:50:10;;;;;;;;;;;4.30;99.90;;;;;;2603283;54;20541;31
2022/12/07 10:52:58;;;;;;;;;;;4.30;99.90;;;;;;2621303;47;19939;31
2022/12/07 10:58:19;;;;;;;;;;;4.20;99.90;;;;;;2620598;47;20726;31
2022/12/07 11:00:55;;;;;;;;;;;4.10;99.90;;;;;;2621685;47;19993;31
2022/12/07 11:03:36;;;;;;;;;;;4.10;99.90;;;;;;2621208;47;20026;31
2022/12/07 11:06:14;;;;;;;;;;;4.10;99.90;;;;;;2602977;54;19990;31
2022/12/07 11:08:53;;;;;;;;;;;4.10;99.90;;;;;;2621627;47;19947;31
2022/12/07 11:11:29;;;;;;;;;;;4.10;99.90;;;;;;2602926;54;20778;31
2022/12/07 11:14:08;;;;;;;;;;;4.00;99.90;;;;;;2621579;47;20005;31
2022/12/07 11:16:46;;;;;;;;;;;4.00;99.90;;;;;;2603075;54;20868;31
2022/12/07 11:19:35;;;;;;;;;;;4.00;99.90;;;;;;2613012;46;20834;31
2022/12/07 11:22:11;;;;;;;;;;;4.00;99.90;;;;;;2603687;54;20474;31
2022/12/07 11:24:47;;;;;;;;;;;4.00;99.90;;;;;;2622255;46;19990;31
2022/12/07 11:27:22;;;;;;;;;;;3.90;99.90;;;;;;2603018;54;21098;31
2022/12/07 11:30:11;;;;;;;;;;;3.90;99.90;;;;;;2622263;46;19962;31
2022/12/07 11:33:00;;;;;;;;;;;3.90;99.90;;;;;;2622317;46;19935;31
2022/12/07 11:35:38;;;;;;;;;;;3.90;99.90;;;;;;2603714;54;19935;31
2022/12/07 11:38:13;;;;;;;;;;;3.90;99.90;;;;;;2603917;54;19934;31
2022/12/07 11:40:50;;;;;;;;;;;3.90;99.90;;;;;;2603880;54;19962;31
2022/12/07 11:43:28;;;;;;;;;;;3.90;99.90;;;;;;2603792;54;20789;31
2022/12/07 11:46:06;;;;;;;;;;;3.90;99.90;;;;;;2603254;54;19950;31
2022/12/07 11:48:43;;;;;;;;;;;3.90;99.90;;;;;;2609856;39;20253;31
2022/12/07 11:51:18;;;;;;;;;;;3.90;99.90;;;;;;2603925;54;19986;31
2022/12/07 11:53:52;;;;;;;;;;;3.90;99.90;;;;;;2622466;46;20009;31
2022/12/07 11:56:26;;;;;;;;;;;3.90;99.90;;;;;;2603366;54;20018;31
2022/12/07 11:59:01;;;;;;;;;;;3.90;99.90;;;;;;2622114;46;19942;31
2022/12/07 12:01:41;;;;;;;;;;;3.90;99.90;;;;;;2622283;46;19935;31
2022/12/07 12:04:20;;;;;;;;;;;3.90;99.90;;;;;;2621623;46;19958;31
2022/12/07 12:06:54;;;;;;;;;;;3.90;99.90;;;;;;2603915;54;19934;31
2022/12/07 12:12:48;;;;;;;;;;;3.80;99.90;;;;;;2603722;54;20029;31
2022/12/07 12:15:46;;;;;;;;;;;3.80;99.90;;;;;;2622395;46;19934;31
2022/12/07 12:18:37;;;;;;;;;;;3.80;99.90;;;;;;2602997;54;19943;31
2022/12/07 12:21:15;;;;;;;;;;;3.80;99.90;;;;;;2702613;39;20365;31
2022/12/07 12:26:23;;;;;;;;;;;3.80;99.90;;;;;;2603771;54;19935;31
2022/12/07 12:28:58;;;;;;;;;;;3.80;99.90;;;;;;2603458;54;19941;31
2022/12/07 12:32:00;;;;;;;;;;;3.90;99.90;;;;;;2622325;46;19961;31
2022/12/07 12:34:35;;;;;;;;;;;3.90;99.90;;;;;;2603861;46;20795;31
2022/12/07 12:37:20;;;;;;;;;;;4.00;99.90;;;;;;2792330;31;21366;31
2022/12/07 12:40:10;;;;;;;;;;;4.00;99.90;;;;;;2603782;54;19934;31
2022/12/07 12:42:47;;;;;;;;;;;4.00;99.90;;;;;;2621802;46;19935;31
2022/12/07 12:45:23;;;;;;;;;;;4.10;99.90;;;;;;2603431;54;21342;31
2022/12/07 12:47:58;;;;;;;;;;;4.10;99.90;;;;;;2603713;54;19941;31
2022/12/07 12:50:33;;;;;;;;;;;4.10;99.90;;;;;;2720681;39;21325;31
2022/12/07 12:53:23;;;;;;;;;;;4.10;99.90;;;;;;2622191;46;19942;31
2022/12/07 12:56:15;;;;;;;;;;;4.10;99.90;;;;;;2622036;46;19947;31
2022/12/07 12:58:49;;;;;;;;;;;4.10;99.90;;;;;;2603503;54;20829;31
2022/12/07 13:01:51;;;;;;;;;;;4.10;99.90;;;;;;2622270;46;19935;31
2022/12/07 13:04:27;;;;;;;;;;;4.10;99.90;;;;;;2603778;54;19939;31
2022/12/07 13:07:02;;;;;;;;;;;4.10;99.90;;;;;;2622068;46;19938;31
2022/12/07 13:09:39;;;;;;;;;;;4.00;99.90;;;;;;2622333;46;19935;31
2022/12/07 13:12:17;;;;;;;;;;;4.00;99.90;;;;;;2621854;46;20486;31
2022/12/07 13:14:55;;;;;;;;;;;4.00;99.90;;;;;;2622103;46;19935;31
2022/12/07 13:17:45;;;;;;;;;;;4.00;99.90;;;;;;2622179;46;19935;31
2022/12/07 13:20:42;;;;;;;;;;;4.00;99.90;;;;;;2603496;54;20482;31
2022/12/07 13:23:16;;;;;;;;;;;4.00;99.90;;;;;;2603486;54;20791;31
2022/12/07 13:25:53;;;;;;;;;;;4.00;99.90;;;;;;2603599;54;19943;31
2022/12/07 13:28:35;;;;;;;;;;;4.00;99.90;;;;;;2603517;54;19942;31
2022/12/07 13:31:28;;;;;;;;;;;4.00;99.90;;;;;;2603601;54;19935;31
2022/12/07 13:34:02;;;;;;;;;;;4.20;99.90;;;;;;2621812;46;19966;31
2022/12/07 13:36:39;;;;;;;;;;;3.90;99.90;;;;;;2603233;54;19934;31
2022/12/07 13:39:14;;;;;;;;;;;3.90;99.90;;;;;;2622123;46;19935;31
2022/12/07 13:41:48;;;;;;;;;;;3.90;99.90;;;;;;2701948;39;20477;31
2022/12/07 13:44:26;;;;;;;;;;;3.90;99.90;;;;;;2622308;46;20716;31
2022/12/07 13:47:02;;;;;;;;;;;3.90;99.90;;;;;;2621828;46;20013;31
2022/12/07 13:49:39;;;;;;;;;;;3.90;99.90;;;;;;2621812;46;19989;31
2022/12/07 13:52:16;;;;;;;;;;;3.90;99.90;;;;;;2602775;54;19939;31
2022/12/07 13:54:52;;;;;;;;;;;3.90;99.90;;;;;;2603627;54;19954;31
2022/12/07 13:57:27;;;;;;;;;;;3.90;99.90;;;;;;2621774;46;19935;31
2022/12/07 14:00:05;;;;;;;;;;;3.90;99.90;;;;;;2701077;39;20396;31
2022/12/07 14:02:39;;;;;;;;;;;3.90;99.90;;;;;;2603247;54;20787;31
2022/12/07 14:05:18;;;;;;;;;;;3.90;99.90;;;;;;2621770;46;19946;31
2022/12/07 14:07:59;;;;;;;;;;;3.90;99.90;;;;;;2621991;46;19941;31
2022/12/07 14:10:33;;;;;;;;;;;3.90;99.90;;;;;;2603524;54;19935;31
2022/12/07 14:13:25;;;;;;;;;;;3.90;99.90;;;;;;2621924;46;19938;31
2022/12/07 14:16:02;;;;;;;;;;;4.00;99.90;;;;;;2603357;54;19935;31
2022/12/07 14:18:39;;;;;;;;;;;3.90;99.90;;;;;;2621507;46;19947;31
2022/12/07 14:21:17;;;;;;;;;;;3.90;99.90;;;;;;2603377;54;20859;31
2022/12/07 14:24:05;;;;;;;;;;;3.90;99.90;;;;;;2701741;39;20397;31
2022/12/07 14:26:39;;;;;;;;;;;3.90;99.90;;;;;;2603089;54;19951;31
2022/12/07 14:29:25;;;;;;;;;;;3.90;99.90;;;;;;2603140;54;20033;31
2022/12/07 14:32:04;;;;;;;;;;;3.90;99.90;;;;;;2621751;47;19943;31
2022/12/07 14:34:40;;;;;;;;;;;3.80;99.90;;;;;;2603216;54;19998;31
2022/12/07 14:37:15;;;;;;;;;;;3.80;99.90;;;;;;2621708;47;19957;31
2022/12/07 14:39:50;;;;;;;;;;;3.80;99.90;;;;;;2603037;54;19942;31
2022/12/07 14:42:27;;;;;;;;;;;3.80;99.90;;;;;;2603303;54;20045;31
2022/12/07 14:45:01;;;;;;;;;;;3.70;99.90;;;;;;2621664;47;19934;31
2022/12/07 14:47:43;;;;;;;;;;;3.70;99.90;;;;;;2602781;54;19961;31
2022/12/07 14:50:42;;;;;;;;;;;3.60;99.90;;;;;;2621739;47;19939;31
2022/12/07 14:53:43;;;;;;;;;;;3.60;99.90;;;;;;2603872;54;19958;31
2022/12/07 14:56:17;;;;;;;;;;;3.60;99.90;;;;;;2603861;54;20727;31
2022/12/07 14:58:52;;;;;;;;;;;3.50;99.90;;;;;;2604076;54;19943;31
2022/12/07 15:01:26;;;;;;;;;;;3.50;99.90;;;;;;2604110;54;19935;31
2022/12/07 15:04:04;;;;;;;;;;;3.50;99.90;;;;;;2603916;54;20746;31
2022/12/07 15:06:39;;;;;;;;;;;3.50;99.90;;;;;;2721270;39;20469;31
2022/12/07 15:09:14;;;;;;;;;;;3.50;99.90;;;;;;2622677;46;20760;31
2022/12/07 15:11:47;;;;;;;;;;;3.40;99.90;;;;;;2603925;54;20490;31
2022/12/07 15:14:22;;;;;;;;;;;3.40;99.90;;;;;;2603909;54;20801;31
2022/12/07 15:16:57;;;;;;;;;;;3.40;99.90;;;;;;2603731;54;20821;31
2022/12/07 15:19:53;;;;;;;;;;;3.40;99.90;;;;;;2622465;46;20696;31
2022/12/07 15:22:29;;;;;;;;;;;3.40;99.90;;;;;;2603696;54;19939;31
2022/12/07 15:25:10;;;;;;;;;;;3.40;99.90;;;;;;2603969;54;20772;31
2022/12/07 15:27:45;;;;;;;;;;;3.40;99.90;;;;;;2702272;39;20386;31
2022/12/07 15:30:19;;;;;;;;;;;3.40;99.90;;;;;;2702521;39;20393;31
2022/12/07 15:32:54;;;;;;;;;;;3.30;99.90;;;;;;2702370;39;20371;31
2022/12/07 15:35:31;;;;;;;;;;;3.30;99.90;;;;;;2603797;54;19946;31
2022/12/07 15:38:05;;;;;;;;;;;3.30;99.90;;;;;;2702231;39;20533;31
2022/12/07 15:40:40;;;;;;;;;;;3.30;99.90;;;;;;2622284;46;19957;31
2022/12/07 15:46:07;;;;;;;;;;;3.30;99.90;;;;;;2622253;46;20744;31
2022/12/07 15:48:42;;;;;;;;;;;3.20;99.90;;;;;;2622070;46;19934;31
2022/12/07 15:51:21;;;;;;;;;;;3.20;99.90;;;;;;2603606;54;20731;31
2022/12/07 15:53:57;;;;;;;;;;;3.20;99.90;;;;;;2603739;54;20781;31
2022/12/07 15:56:33;;;;;;;;;;;3.20;99.90;;;;;;2603924;54;20482;31
2022/12/07 15:59:06;;;;;;;;;;;3.20;99.90;;;;;;2603796;54;19989;31
2022/12/07 16:01:41;;;;;;;;;;;3.20;99.90;;;;;;2622496;46;19939;31
2022/12/07 16:04:16;;;;;;;;;;;3.10;99.90;;;;;;2621950;46;20021;31